< < Back
Terminal Aerodrome Forecast


Current Version              Previous Versions:   1  2  3  4  5  6  7  8  9  

Terminal Aerodrome Forecast

070
FTUS42 KGSP 230539
TAFGSP
TAF
KGSP 230539Z 2306/2406 VRB02KT P6SM SCT250
     FM230900 VRB02KT 6SM BR FEW250
      TEMPO 2310/2312 4SM BR
     FM231300 VRB02KT P6SM FEW250
     FM232000 21006KT P6SM FEW060 SCT250 PROB30 2321/2401 4SM -TSRA
      BKN250CB
     FM240200 VRB02KT P6SM SCT090=

Latest METAR

583
SAUS70 KWBC 240400 RRE
MTRGSP
METAR KGSP 240353Z AUTO 22004KT 10SM CLR 24/22 A3002 RMK AO2 SLP153
T02440217


USA.gov is the U.S. government's official web portal to all federal, state and local government web resources and services.